Ana Sayfa
METAR-TAF:

METAR-TAF

Havaalanları :

Pecos, Teksas, Amerika Birleşik Devletleri

Enlem: 31-22-56N, Boylam: 103-30-38W, yükseklik: 796 m

Güncel hava durumu gözlemi

Rapor saat 10:35 UTC de 38 dakika önce yapıldı.
Rüzgar doğudan 5 kt
Sıcaklık 25°C
Nem 47%
Basınç 1008 hPa
Görüş mesafesi: 16.1 km

METAR: KPEQ 161035Z AUTO 08005KT 10SM 25/13 A2977 RMK AO2 T02480131

Saat: 06:13 (11:13 UTC)

Tahmin

Rapor saat 08:04 UTC de 3 saat ve 9 dakika önce yapıldı.
Ayın 16'si saat 08 UTC'den ayın 17'si saat 06 UTC'ye kadar geçerli Tahmin
Rüzgar doğu/güneydoğudan 8 kt
Görüş mesafesi: 10 km
Açık gökyüzü
Ayın 16'si saat 1600 UTC'den
Rüzgar doğu/güneydoğudan 14 kt ve 20 kt'a kadar ani rüzgarlar
Görüş mesafesi: 10 km
6000 ft yükseklikte parçalı bulutlu
Ayın 17'si saat 0200 UTC'den
Rüzgar doğu/güneydoğudan 15 kt
Görüş mesafesi: 10 km
Açık gökyüzü

TAF: KPEQ 160804Z 1608/1706 11008KT P6SM SKC FM161600 11014G20KT P6SM SCT060 FM170200 12015KT P6SM SKC

4.000'den fazla havaalanı için hava durumu gözlemleri ve tahminleri (METAR ve TAF raporları).

Kullanılabilir istasyonlar harita üzerinde sarı ve kırmızı noktalarla gösterilir.

İstasyonun adını görmek için fareyi noktanın üzerinde gezdirin.

Sonrasında hava gözlem ve tahminlerini görmek için tıklayın.

Haritayı değiştirmek için: yaklaştırmak için siyah artı işaretli yeşil düğmeye ve uzaklaştırmak için de eksi işaretli düğmeye hızla tıklayın; bitişik haritalar için yeşil okları kullanın.


METAR-TAF: